Vlad Korotkov

Chefscout - Fakel
10 Sep 2028
Sonntag
Verarbeitung

Persönlichkeit

Anpassungsfähigkeit (1) Ehrgeiz (14) Kontroverse (10) Loyalität (6) Druck (2) Professionalität (4) Fairness (3) Temperament (13)

Profil

Trainerstil Demokratisch
Lizenz Kontinentale C
Entschlossenheit 6
Menschenführung 4
Motivation 8
Disziplin 7
Arbeitszufriedenheit
100%
Ermüdung
0%
Rolle Chefscout
Gehalt 24.2K p/W
Vertrag 14.03.2030

Leistung

Verhalten Gut
Trainingseffektivität
34%
Spielerentwicklung
15%
Verletzungsprävention
35%
Taktische Umsetzung
15%

Letzte Ereignisse

Nahm an einer Scouting-Besprechung teil 7T her
Empfahl ein Transferziel 7T her
Legte dem Vorstand ein Dossier vor 7T her
Nahm an einer Scouting-Besprechung teil 14T her
Empfahl ein Transferziel 14T her
Sprach sich gegen ein Transferziel aus 14T her
Legte dem Vorstand ein Dossier vor 14T her
Nahm an einer Scouting-Besprechung teil 21T her

Aktuell beobachtet

91
Spieler Verein Status Fähigkeit Vertrauen Beobachtet Zuletzt beobachtet Letzte Stimme
Sergey Terekhov Dinamo Bryansk Verloren 104 / 108 72% 1 21.08.2028 Befürworten
Edgardo Fariña Nizhniy Novgorod Aktiv 122 / 106 40% 3 12.06.2028 -
Alexandr Korotkov Rotor Aktiv 100 / 109 40% 3 12.06.2028 -
Roberto Pierno Campobasso Aktiv 115 / 106 40% 1 12.06.2028 -
Ilja Agapov Ufa Aktiv 121 / 117 40% 2 10.06.2028 -
Matthew Baker Newport County Aktiv 105 / 97 40% 1 10.06.2028 -
Max Sanders Crewe Alexandra Aktiv 107 / 125 40% 1 09.06.2028 -
Géza Dávid Turi Grimsby Town Aktiv 111 / 94 40% 1 09.06.2028 -
Denver Hume Fleetwood Town Aktiv 116 / 92 40% 6 08.06.2028 -
Nohan Kenneh Tranmere Rovers Aktiv 93 / 94 40% 1 08.06.2028 -
Alexandr Kovalenko Sochi Abgelehnt 111 / 123 40% 3 07.06.2028 Ablehnen
Luca Hoole Shrewsbury Town Aktiv 112 / 109 40% 3 02.06.2028 -
Kirill Bozhenov Sokol Aktiv 102 / 106 40% 2 02.06.2028 -
Matt Smith Newport County Aktiv 113 / 116 40% 3 02.06.2028 -
Konstantin Kovalev Volga Aktiv 109 / 96 40% 1 01.06.2028 -
Riley Owen Stevenage Aktiv 118 / 125 40% 1 31.05.2028 -
Rhys Walters Port Vale Aktiv 105 / 101 40% 2 30.05.2028 -
Pavel Maslov Chaika Aktiv 113 / 104 40% 3 30.05.2028 -
Joe Snowdon Swindon Town Aktiv 97 / 117 40% 1 28.05.2028 -
Federico Giraudo Casarano Aktiv 117 / 110 40% 1 28.05.2028 -
Oliver Urso Lecco Aktiv 103 / 95 40% 2 27.05.2028 -
Kees de Boer Salernitana Aktiv 113 / 129 40% 1 27.05.2028 -
Kamil Conteh Bristol Rovers Aktiv 105 / 122 40% 1 27.05.2028 -
Mattia Maffei Trento Aktiv 95 / 113 40% 1 26.05.2028 -
Garrik Levin Chelyabinsk Aktiv 110 / 95 40% 2 25.05.2028 -
Elliot Bonds Fleetwood Town Aktiv 103 / 119 40% 2 25.05.2028 -
Denzel Hall Rotherham United Aktiv 107 / 98 40% 1 25.05.2028 -
Bojan Roganović Torpedo Moscow Aktiv 117 / 110 40% 3 22.05.2028 -
Ignacio Saavedra Sochi Aktiv 120 / 125 40% 2 21.05.2028 -
Finley Burns Wigan Athletic Aktiv 110 / 97 40% 2 18.05.2028 -
Reece Oxford Shrewsbury Town Aktiv 119 / 102 40% 1 17.05.2028 -
Eyob Zambataro Novara Aktiv 116 / 95 40% 1 13.05.2028 -
Jack Shepherd Swindon Town Aktiv 125 / 122 40% 1 10.05.2028 -
Iker Pozo Rodina Aktiv 123 / 117 40% 1 08.05.2028 -
Ettore Quirini Salernitana Aktiv 116 / 131 40% 1 08.05.2028 -
Ryan Stirk Chesterfield Aktiv 113 / 125 40% 2 04.05.2028 -
Timofey Kalistratov KAMAZ Aktiv 105 / 99 40% 1 04.05.2028 -
Kelechi Nwakali Barnsley Aktiv 123 / 115 40% 2 03.05.2028 -
Dan Happe Salford City Aktiv 115 / 98 40% 1 03.05.2028 -
Arthur Read Colchester United Aktiv 103 / 95 40% 1 01.05.2028 -
Alexandr Ivankov Torpedo Moscow Aktiv 119 / 107 40% 1 01.05.2028 -
Ashley Charles Bromley Aktiv 90 / 97 40% 1 29.04.2028 -
Zane Albarus Shrewsbury Town Aktiv 98 / 99 40% 1 29.04.2028 -
Rich Sackey Medeama Aktiv 101 / 106 40% 1 28.04.2028 -
Maxim Shnaptsev Baltika Aktiv 105 / 100 40% 1 20.04.2028 -
Temirkan Sundukov Dinamo Makhachkala Aktiv 110 / 113 40% 1 20.04.2028 -
Jack Perkins Bromley Aktiv 94 / 91 40% 1 13.04.2028 -
Artem Bykov Sokol Aktiv 102 / 104 40% 1 12.04.2028 -
Claud Adjapong Potenza Aktiv 105 / 95 40% 1 12.04.2028 -
Savely Nikiforov Zenit Aktiv 86 / 79 40% 1 12.04.2028 -
Nicolas Previtali Giana Erminio Aktiv 105 / 127 40% 1 09.04.2028 -
Bojan Dimoski Akron Aktiv 115 / 98 40% 1 04.04.2028 -
Yegor Noskov SKA Khabarovsk Aktiv 94 / 109 40% 1 04.04.2028 -
Artem Kotik Neftekhimik Aktiv 96 / 96 30% 1 / 1m 05.01.2028 -
Vladlen Ostrovsky Irkutsk Aktiv 82 / 87 30% 1 / 1m 06.10.2027 -
Yury Nesterenko Kuban Verloren 97 / 97 69% 1 23.08.2027 Befürworten
Maxim Belov Dinamo Brest Aktiv 103 / 95 40% 1 12.06.2027 -
Stanislav Kleschuk Gomel Aktiv 99 / 99 40% 1 11.06.2027 -
Alexey Kharitonovich Slutsk Aktiv 87 / 78 40% 1 11.06.2027 -
Bogdan Ovsyannikov Orenburg Aktiv 113 / 114 40% 6 08.06.2027 -
Sergey Ignatovich Torpedo-BelAZ Aktiv 97 / 95 40% 1 06.06.2027 -
Artur Anisimov KAMAZ Aktiv 94 / 96 40% 3 05.06.2027 -
Vladimir Pavlov Saturn Aktiv 75 / 76 40% 3 05.06.2027 -
Nikita Medvedev Nizhniy Novgorod Aktiv 113 / 104 40% 3 01.06.2027 -
Islam Imamov SKA Khabarovsk Aktiv 93 / 97 40% 3 31.05.2027 -
Nikita Pavlov Chaika Aktiv 77 / 88 40% 2 31.05.2027 -
Maxim Shichanin Zenit Aktiv 86 / 93 40% 1 30.05.2027 -
Andrey Golubev Neftekhimik Aktiv 103 / 101 40% 4 29.05.2027 -
Nikolay Rybikov Dinamo St Petersburg Aktiv 89 / 83 40% 1 29.05.2027 -
David Sangaré Ryazan Aktiv 97 / 97 40% 2 25.05.2027 -
Vladislav Kucheiko Sevastopol Aktiv 73 / 75 40% 1 25.05.2027 -
Maxim Vafiev Torpedo Vladimir Aktiv 75 / 87 40% 6 24.05.2027 -
Roman Anikeev Dinamo Vologda Aktiv 75 / 80 40% 1 24.05.2027 -
Cristian Rivero Real Sociedad Aktiv 121 / 111 40% 2 22.05.2027 -
Kaur Kivila Flora Aktiv 96 / 88 40% 1 20.05.2027 -
Ilja Tuseev Chelyabinsk Aktiv 91 / 99 40% 1 19.05.2027 -
Georgy Tuaev Rubin Yalta Aktiv 79 / 79 40% 1 16.05.2027 -
Vladimir Tsapurin SKA Khabarovsk Aktiv 75 / 86 40% 2 14.05.2027 -
Ivan Lomaev Ufa Aktiv 115 / 117 40% 4 10.05.2027 -
Denis Vambolt Shinnik Aktiv 93 / 97 40% 3 10.05.2027 -
Vladislav Zernaev Salyut Aktiv 85 / 81 40% 2 05.05.2027 -
Sergey Volkov Rodina Aktiv 101 / 116 40% 1 04.05.2027 -
Petr Kosarevskiy Sibir Aktiv 105 / 98 40% 2 23.04.2027 -
Nuno Rafael Nart Aktiv 66 / 74 40% 1 23.04.2027 -
Timur Kraikov Sokol Aktiv 100 / 93 40% 1 22.04.2027 -
Dmitry Rebrov Volna Aktiv 72 / 82 40% 1 21.04.2027 -
Roman Raifegerste Khimik Aktiv 75 / 91 40% 1 21.04.2027 -
Rostislav Soldatenko Torpedo Moscow Aktiv 104 / 102 40% 2 16.04.2027 -
Timur Akmurzin Dinamo Bryansk Aktiv 85 / 91 40% 1 10.04.2027 -
Tomás Galván River Plate Aktiv 112 / 127 40% 1 04.08.2026 -
Gastón Lodico Racing Club Aktiv 135 / 126 40% 1 01.08.2026 -